»·PEaware :: N6280F KBUR-KFUL

N6280F :: KBUR-KFUL

FLIGHT INFORMATION

Flight Status: Arrived
Operator: Privately registered:
United States
More flights under this callsign
Pilot: Cody S. (29806)
Aircraft: CIRRUS SR-22 TURBO
(S22T)
More flights by this aircraft type
Origin: KBUR Bob Hope-Burbank
United States
Destination: KFUL Fullerton Mun
United States
More flights between these airports :: More routes between these airports
Route: ELM
File this flight plan on PilotEdge
Remarks:
Altitude:
(Current/Filed)
3,500ft
Speed:
(Current/Filed)
165kts
Departed: 18-Nov-20 02:36 PM
Arrived: 18-Nov-20 02:53 PM
Distance/Time
Traveled:
27nm/0:16
Distance/Time
To Go:
Arrived

Flight Plot

Page will automatically refresh every two minutes.

Flight plan parsing failed; only flown route is shown


Map Options




Map Legend


Flown Route
Filed Route
Departure Airport
Arrival Airport
Navaid (VOR, NDB)
Fix

Horizontal Profiles

Position Reports

Time Latitude Longitude Heading Altitude Ground
Speed
18-Nov-20 14:03 34.200210 -118.358863 280 725ft 0kts
18-Nov-20 14:04 34.200210 -118.358863 280 725ft 0kts
18-Nov-20 14:05 34.200210 -118.358863 280 725ft 0kts
18-Nov-20 14:06 34.200210 -118.358863 280 725ft 0kts
18-Nov-20 14:07 34.200210 -118.358863 280 725ft 0kts
18-Nov-20 14:08 34.200210 -118.358863 280 725ft 0kts
18-Nov-20 14:09 34.200210 -118.358863 280 725ft 0kts
18-Nov-20 14:10 34.200210 -118.358863 280 725ft 0kts
18-Nov-20 14:11 34.200210 -118.358863 280 725ft 0kts
18-Nov-20 14:12 34.200210 -118.358863 280 725ft 0kts
18-Nov-20 14:13 34.200210 -118.358863 280 725ft 0kts
18-Nov-20 14:14 34.200210 -118.358863 280 725ft 0kts
18-Nov-20 14:15 34.200210 -118.358863 280 725ft 0kts
18-Nov-20 14:16 34.200210 -118.358863 280 725ft 0kts
18-Nov-20 14:17 34.200210 -118.358863 280 725ft 0kts
18-Nov-20 14:18 34.200210 -118.358863 280 725ft 0kts
18-Nov-20 14:20 34.200210 -118.358863 280 725ft 0kts
18-Nov-20 14:21 34.200210 -118.358863 280 725ft 0kts
18-Nov-20 14:22 34.200210 -118.358863 280 725ft 0kts
18-Nov-20 14:23 34.200210 -118.358863 280 725ft 0kts
18-Nov-20 14:24 34.200210 -118.358863 280 725ft 0kts
18-Nov-20 14:25 34.200210 -118.358863 280 725ft 0kts
18-Nov-20 14:26 34.200210 -118.358863 280 725ft 0kts
18-Nov-20 14:27 34.200212 -118.358910 273 725ft 2kts
18-Nov-20 14:28 34.201678 -118.358943 21 732ft 3kts
18-Nov-20 14:29 34.204007 -118.359338 345 742ft 10kts
18-Nov-20 14:30 34.207780 -118.360366 348 761ft 20kts
18-Nov-20 14:31 34.209436 -118.360586 50 768ft 0kts
18-Nov-20 14:32 34.209436 -118.360585 50 768ft 0kts
18-Nov-20 14:33 34.209436 -118.360585 50 768ft 0kts
18-Nov-20 14:34 34.209436 -118.360585 50 768ft 0kts
18-Nov-20 14:35 34.211520 -118.361173 42 776ft 0kts
18-Nov-20 14:36 34.197770 -118.356250 166 934ft 117kts
18-Nov-20 14:37 34.174877 -118.327462 119 1865ft 133kts
18-Nov-20 14:38 34.156843 -118.287391 117 2834ft 138kts
18-Nov-20 14:38 34.145176 -118.250661 110 3611ft 144kts
18-Nov-20 14:39 34.129864 -118.198756 110 3632ft 174kts
18-Nov-20 14:41 34.111032 -118.134999 110 3627ft 173kts
18-Nov-20 14:41 34.097503 -118.089137 110 3627ft 173kts
18-Nov-20 14:43 34.071977 -118.030792 146 3636ft 172kts
18-Nov-20 14:43 34.034599 -118.014698 165 3633ft 171kts
18-Nov-20 14:44 33.988969 -117.998912 164 3627ft 169kts
18-Nov-20 14:45 33.944048 -117.983323 164 3623ft 169kts
18-Nov-20 14:46 33.896946 -117.966485 172 2474ft 186kts
18-Nov-20 14:47 33.852794 -117.957753 156 1041ft 121kts
18-Nov-20 14:48 33.852567 -117.920951 48 1082ft 132kts
18-Nov-20 14:49 33.881639 -117.909695 297 1141ft 128kts
18-Nov-20 14:50 33.881020 -117.946456 234 868ft 146kts
18-Nov-20 14:51 33.872344 -117.978319 255 96ft 64kts
18-Nov-20 14:52 33.872063 -117.981303 340 92ft 0kts
18-Nov-20 14:53 33.872440 -117.981627 271 92ft 5kts
18-Nov-20 14:54 33.872733 -117.982484 242 91ft 0kts
18-Nov-20 14:55 33.872733 -117.982484 242 91ft 0kts
18-Nov-20 14:56 33.872733 -117.982484 242 91ft 0kts
18-Nov-20 14:57 33.872733 -117.982484 242 91ft 0kts
18-Nov-20 14:58 33.872733 -117.982484 242 91ft 0kts
18-Nov-20 14:59 33.872733 -117.982484 242 91ft 0kts
18-Nov-20 15:00 33.872733 -117.982484 242 91ft 0kts
18-Nov-20 15:01 33.872733 -117.982484 242 91ft 0kts
18-Nov-20 15:02 33.872733 -117.982484 242 91ft 0kts
18-Nov-20 15:03 33.872733 -117.982484 242 91ft 0kts
18-Nov-20 15:04 33.872733 -117.982484 242 91ft 0kts
18-Nov-20 15:05 33.872733 -117.982484 242 91ft 0kts
18-Nov-20 15:06 33.872733 -117.982484 242 91ft 0kts

Navigation Log

Ident Type
Flight plan parsing failed, navigation log unavailable